createdAt,value
2022-08-16T00:02:33.317Z,95197.50
2022-08-16T00:05:00.732Z,95201.84
2022-08-16T00:07:28.988Z,95200.34
2022-08-16T00:09:56.824Z,95204.53
2022-08-16T00:12:24.006Z,95199.38
2022-08-16T00:14:50.907Z,95196.03
2022-08-16T00:17:23.881Z,95201.22
2022-08-16T00:19:53.721Z,95201.94
2022-08-16T00:22:24.938Z,95203.75
2022-08-16T00:24:54.311Z,95202.91
2022-08-16T00:27:22.236Z,95205.94
2022-08-16T00:30:00.878Z,95204.34
2022-08-16T00:32:37.240Z,95203.59
2022-08-16T00:35:13.309Z,95205.28
2022-08-16T00:37:58.194Z,95201.41
2022-08-16T00:40:43.616Z,95213.50
2022-08-16T00:43:42.685Z,95210.78
2022-08-16T00:46:33.891Z,95204.59
2022-08-16T00:49:17.451Z,95204.72
2022-08-16T00:51:47.199Z,95204.47
2022-08-16T00:54:25.244Z,95202.72
2022-08-16T00:56:56.785Z,95208.84
2022-08-16T00:59:27.395Z,95202.91
2022-08-16T01:01:54.980Z,95211.53
2022-08-16T01:04:28.967Z,95209.78
2022-08-16T01:07:01.280Z,95204.06
2022-08-16T01:09:33.088Z,95206.47
2022-08-16T01:12:02.012Z,95209.22
2022-08-16T01:14:34.106Z,95206.13
2022-08-16T01:17:02.305Z,95200.97
2022-08-16T01:19:40.842Z,95202.25
2022-08-16T01:22:46.807Z,95194.28
2022-08-16T01:25:18.930Z,95201.91
2022-08-16T01:27:52.076Z,95206.09
2022-08-16T01:30:26.470Z,95202.44
2022-08-16T01:33:01.972Z,95208.25
2022-08-16T01:35:52.690Z,95208.94
2022-08-16T01:38:33.889Z,95209.19
2022-08-16T01:41:20.005Z,95215.22
2022-08-16T01:43:53.836Z,95213.00
2022-08-16T01:46:37.342Z,95218.19
2022-08-16T01:49:20.355Z,95222.69
2022-08-16T01:51:59.503Z,95218.72
2022-08-16T01:54:46.190Z,95211.75
2022-08-16T01:57:12.872Z,95217.16
2022-08-16T01:59:41.307Z,95223.66
2022-08-16T02:02:27.438Z,95220.06
2022-08-16T02:04:55.090Z,95224.16
2022-08-16T02:07:25.642Z,95213.84
2022-08-16T02:09:57.168Z,95209.78
2022-08-16T02:12:51.681Z,95202.06
2022-08-16T02:15:15.682Z,95203.88
2022-08-16T02:17:43.228Z,95206.16
2022-08-16T02:20:13.654Z,95196.31
2022-08-16T02:22:40.363Z,95210.72
2022-08-16T02:25:11.258Z,95205.66
2022-08-16T02:27:40.891Z,95210.50
2022-08-16T02:30:36.561Z,95199.31
2022-08-16T02:33:04.010Z,95193.44
2022-08-16T02:35:31.463Z,95198.25
2022-08-16T02:38:01.697Z,95190.75
2022-08-16T02:40:37.378Z,95192.25
2022-08-16T02:43:04.414Z,95195.84
2022-08-16T02:45:31.865Z,95191.75
2022-08-16T02:48:01.064Z,95184.53
2022-08-16T02:50:54.289Z,95189.09
2022-08-16T02:53:32.928Z,95193.06
2022-08-16T02:56:00.537Z,95181.16
2022-08-16T02:58:29.179Z,95176.97
2022-08-16T03:00:57.692Z,95177.22
2022-08-16T03:03:27.235Z,95174.94
2022-08-16T03:06:41.934Z,95168.94
2022-08-16T03:09:14.954Z,95167.94
2022-08-16T03:11:47.557Z,95165.50
2022-08-16T03:14:21.245Z,95160.13
2022-08-16T03:17:00.372Z,95163.41
2022-08-16T03:19:47.274Z,95162.25
2022-08-16T03:22:28.650Z,95163.78
2022-08-16T03:25:04.495Z,95165.81
2022-08-16T03:27:35.274Z,95154.28
2022-08-16T03:30:16.098Z,95154.13
2022-08-16T03:32:51.105Z,95146.56
2022-08-16T03:35:22.589Z,95146.44
2022-08-16T03:38:03.040Z,95149.75
2022-08-16T03:40:39.448Z,95149.13
2022-08-16T03:43:20.765Z,95159.53
2022-08-16T03:45:53.349Z,95143.66
2022-08-16T03:48:36.636Z,95149.25
2022-08-16T03:51:12.413Z,95155.81
2022-08-16T03:53:46.282Z,95152.28
2022-08-16T03:56:27.970Z,95153.97
2022-08-16T03:58:57.489Z,95148.72
2022-08-16T04:01:29.372Z,95144.56
2022-08-16T04:03:57.289Z,95146.13
2022-08-16T04:06:23.899Z,95147.53
2022-08-16T04:08:51.338Z,95149.31
2022-08-16T04:11:18.654Z,95146.06
2022-08-16T04:13:59.234Z,95142.44
2022-08-16T04:16:37.482Z,95144.13
2022-08-16T04:19:31.832Z,95146.03
2022-08-16T04:22:00.824Z,95151.84
2022-08-16T04:24:31.275Z,95154.97
2022-08-16T04:26:58.852Z,95161.88
2022-08-16T04:29:27.799Z,95168.94
2022-08-16T04:32:11.059Z,95169.41
2022-08-16T04:34:41.079Z,95175.78
2022-08-16T04:37:08.828Z,95173.50
2022-08-16T04:39:46.553Z,95183.84
2022-08-16T04:42:25.984Z,95180.91
2022-08-16T04:44:56.082Z,95176.47
2022-08-16T04:47:35.568Z,95176.59
2022-08-16T04:50:12.200Z,95171.47
2022-08-16T04:52:56.873Z,95173.44
2022-08-16T04:55:38.003Z,95178.72
2022-08-16T04:58:44.198Z,95193.16
2022-08-16T05:00:55.614Z,95200.59
2022-08-16T05:03:23.406Z,95195.34
2022-08-16T05:05:55.908Z,95209.63
2022-08-16T05:08:32.000Z,95203.75
2022-08-16T05:11:22.485Z,95209.50
2022-08-16T05:13:49.619Z,95202.09
2022-08-16T05:16:27.514Z,95204.09
2022-08-16T05:19:06.204Z,95203.47
2022-08-16T05:21:42.540Z,95204.75
2022-08-16T05:24:11.217Z,95192.63
2022-08-16T05:26:40.833Z,95194.03
2022-08-16T05:29:15.288Z,95196.94
2022-08-16T05:31:53.419Z,95202.78
2022-08-16T05:34:22.488Z,95198.00
2022-08-16T05:36:55.252Z,95198.84
2022-08-16T05:39:27.981Z,95203.06
2022-08-16T05:41:55.459Z,95204.72
2022-08-16T05:44:25.204Z,95205.75
2022-08-16T05:46:59.976Z,95199.22
2022-08-16T05:49:39.461Z,95202.69
2022-08-16T05:52:11.128Z,95209.56
2022-08-16T05:54:40.076Z,95208.72
2022-08-16T05:57:13.324Z,95207.13
2022-08-16T05:59:40.696Z,95205.53
2022-08-16T06:02:08.499Z,95207.06
2022-08-16T06:04:37.781Z,95202.13
2022-08-16T06:07:24.226Z,95208.50
2022-08-16T06:10:00.012Z,95216.19
2022-08-16T06:12:29.590Z,95217.06
2022-08-16T06:15:08.021Z,95211.09
2022-08-16T06:17:42.789Z,95213.13
2022-08-16T06:20:35.755Z,95200.94
2022-08-16T06:23:24.001Z,95216.34
2022-08-16T06:26:08.195Z,95220.56
2022-08-16T06:28:41.659Z,95223.56
2022-08-16T06:31:15.037Z,95221.13
2022-08-16T06:33:45.763Z,95230.25
2022-08-16T06:36:15.275Z,95232.31
2022-08-16T06:38:55.365Z,95235.25
2022-08-16T06:41:39.871Z,95238.13
2022-08-16T06:44:21.443Z,95233.41
2022-08-16T06:46:53.399Z,95237.13
2022-08-16T06:49:20.653Z,95234.44
2022-08-16T06:51:48.846Z,95227.16
2022-08-16T06:54:20.845Z,95227.72
2022-08-16T06:56:47.514Z,95224.94
2022-08-16T06:59:19.305Z,95225.47
2022-08-16T07:01:55.172Z,95224.84
2022-08-16T07:04:33.359Z,95215.63
2022-08-16T07:07:14.559Z,95222.78
2022-08-16T07:09:41.659Z,95221.38
2022-08-16T07:12:08.777Z,95220.66
2022-08-16T07:14:39.637Z,95224.31
2022-08-16T07:17:08.286Z,95223.69
2022-08-16T07:20:29.801Z,95218.84
2022-08-16T07:22:37.314Z,95214.66
2022-08-16T07:25:22.886Z,95219.88
2022-08-16T07:27:50.405Z,95217.22
2022-08-16T07:30:38.918Z,95213.69
2022-08-16T07:33:10.272Z,95223.00
2022-08-16T07:35:44.378Z,95221.53
2022-08-16T07:38:19.643Z,95224.38
2022-08-16T07:41:09.815Z,95227.44
2022-08-16T07:43:43.690Z,95227.09
2022-08-16T07:46:38.947Z,95228.38
2022-08-16T07:49:04.790Z,95229.53
2022-08-16T07:51:38.716Z,95233.88
2022-08-16T07:54:10.590Z,95237.03
2022-08-16T07:56:43.801Z,95234.09
2022-08-16T07:59:10.604Z,95235.94
2022-08-16T08:01:38.427Z,95234.91
2022-08-16T08:04:08.726Z,95235.31
2022-08-16T08:06:41.380Z,95237.13
2022-08-16T08:09:13.253Z,95249.84
2022-08-16T08:11:41.351Z,95251.97
2022-08-16T08:14:30.046Z,95245.13
2022-08-16T08:17:01.485Z,95250.16
2022-08-16T08:19:30.113Z,95251.00
2022-08-16T08:22:01.428Z,95245.97
2022-08-16T08:24:59.198Z,95255.19
2022-08-16T08:27:32.740Z,95246.00
2022-08-16T08:30:49.813Z,95245.69
2022-08-16T08:32:59.557Z,95252.25
2022-08-16T08:35:36.688Z,95255.47
2022-08-16T08:38:08.333Z,95257.31
2022-08-16T08:40:37.751Z,95253.94
2022-08-16T08:43:11.832Z,95254.38
2022-08-16T08:45:52.419Z,95258.97
2022-08-16T08:48:32.969Z,95260.38
2022-08-16T08:51:02.873Z,95250.75
2022-08-16T08:53:30.342Z,95261.63
2022-08-16T08:55:59.018Z,95261.56
2022-08-16T08:58:34.223Z,95263.34
2022-08-16T09:01:31.853Z,95257.31
2022-08-16T09:04:05.717Z,95257.06
2022-08-16T09:06:33.844Z,95253.91
2022-08-16T09:09:04.158Z,95261.38
2022-08-16T09:11:38.892Z,95256.75
2022-08-16T09:14:09.009Z,95258.72
2022-08-16T09:17:01.109Z,95257.88
2022-08-16T09:19:41.022Z,95262.25
2022-08-16T09:22:20.175Z,95256.47
2022-08-16T09:24:54.152Z,95259.09
2022-08-16T09:27:57.383Z,95264.63
2022-08-16T09:30:33.257Z,95262.84
2022-08-16T09:33:01.898Z,95259.84
2022-08-16T09:35:29.179Z,95264.16
2022-08-16T09:38:01.065Z,95263.63
2022-08-16T09:40:32.735Z,95261.34
2022-08-16T09:43:21.101Z,95263.00
2022-08-16T09:45:58.790Z,95269.50
2022-08-16T09:48:44.078Z,95267.75
2022-08-16T09:51:13.995Z,95257.16
2022-08-16T09:53:41.830Z,95256.03
2022-08-16T09:56:26.585Z,95265.44
2022-08-16T09:59:05.429Z,95257.56
2022-08-16T10:01:47.108Z,95263.25
2022-08-16T10:04:31.564Z,95264.13
2022-08-16T10:07:03.079Z,95264.47
2022-08-16T10:09:53.460Z,95266.75
2022-08-16T10:12:42.554Z,95264.75
2022-08-16T10:15:15.884Z,95263.88
2022-08-16T10:17:59.883Z,95262.78
2022-08-16T10:20:32.469Z,95254.03
2022-08-16T10:23:06.776Z,95258.19
2022-08-16T10:27:17.655Z,95260.00
2022-08-16T10:28:28.698Z,95266.19
2022-08-16T10:31:00.575Z,95261.94
2022-08-16T10:33:33.292Z,95260.66
2022-08-16T10:36:03.793Z,95264.16
2022-08-16T10:38:36.601Z,95259.00
2022-08-16T10:41:08.391Z,95262.31
2022-08-16T10:43:37.974Z,95255.16
2022-08-16T10:46:39.437Z,95263.53
2022-08-16T10:48:57.622Z,95259.84
2022-08-16T10:51:34.444Z,95270.63
2022-08-16T10:54:29.443Z,95258.75
2022-08-16T10:57:03.279Z,95261.56
2022-08-16T10:59:38.981Z,95257.75
2022-08-16T11:02:57.558Z,95253.81
2022-08-16T11:05:09.460Z,95255.84
2022-08-16T11:07:43.703Z,95253.19
2022-08-16T11:11:01.565Z,95247.75
2022-08-16T11:15:55.455Z,95249.28
2022-08-16T11:19:04.555Z,95255.31
2022-08-16T11:21:10.660Z,95253.69
2022-08-16T11:23:58.230Z,95257.19
2022-08-16T11:26:26.262Z,95252.34
2022-08-16T11:31:43.428Z,95260.28
2022-08-16T11:34:13.572Z,95251.66
2022-08-16T11:36:40.402Z,95244.81
2022-08-16T11:39:25.965Z,95244.97
2022-08-16T11:41:56.469Z,95253.94
2022-08-16T11:44:52.028Z,95247.59
2022-08-16T11:47:11.877Z,95248.28
2022-08-16T11:49:38.436Z,95240.13
2022-08-16T11:52:05.120Z,95247.66
2022-08-16T11:54:36.150Z,95241.97
2022-08-16T11:57:03.981Z,95243.28
2022-08-16T11:59:40.026Z,95235.66
2022-08-16T12:02:31.385Z,95230.63
2022-08-16T12:04:54.523Z,95244.75
2022-08-16T12:07:23.910Z,95232.59
2022-08-16T12:09:53.179Z,95233.13
2022-08-16T12:12:20.903Z,95229.78
2022-08-16T12:14:54.466Z,95228.28
2022-08-16T12:17:27.936Z,95235.09
2022-08-16T12:19:59.006Z,95238.34
2022-08-16T12:22:25.689Z,95227.06
2022-08-16T12:24:53.392Z,95221.19
2022-08-16T12:27:23.083Z,95225.75
2022-08-16T12:29:54.867Z,95226.94
2022-08-16T12:32:37.453Z,95223.63
2022-08-16T12:35:19.013Z,95222.00
2022-08-16T12:37:48.763Z,95218.34
2022-08-16T12:40:29.175Z,95212.53
2022-08-16T12:42:59.580Z,95213.91
2022-08-16T12:45:31.430Z,95203.31
2022-08-16T12:48:33.564Z,95204.03
2022-08-16T12:51:13.426Z,95214.56
2022-08-16T12:53:46.212Z,95208.03
2022-08-16T12:56:13.680Z,95208.84
2022-08-16T12:58:48.328Z,95209.09
2022-08-16T13:01:19.544Z,95216.53
2022-08-16T13:03:50.177Z,95202.97
2022-08-16T13:06:29.391Z,95205.28
2022-08-16T13:09:02.318Z,95200.50
2022-08-16T13:11:57.176Z,95201.50
2022-08-16T13:14:33.911Z,95198.69
2022-08-16T13:17:03.892Z,95193.75
2022-08-16T13:20:03.442Z,95194.38
2022-08-16T13:22:22.174Z,95198.31
2022-08-16T13:24:50.582Z,95197.22
2022-08-16T13:27:17.909Z,95189.56
2022-08-16T13:29:45.099Z,95185.44
2022-08-16T13:32:39.702Z,95185.81
2022-08-16T13:35:05.267Z,95180.81
2022-08-16T13:37:32.615Z,95183.59
2022-08-16T13:40:05.312Z,95178.66
2022-08-16T13:42:32.555Z,95184.66
2022-08-16T13:45:10.111Z,95178.38
2022-08-16T13:47:42.550Z,95186.50
2022-08-16T13:50:10.474Z,95181.97
2022-08-16T13:52:39.837Z,95182.25
2022-08-16T13:55:15.573Z,95186.22
2022-08-16T13:58:34.704Z,95180.41
2022-08-16T14:00:31.241Z,95186.97
2022-08-16T14:02:59.256Z,95180.31
2022-08-16T14:05:27.293Z,95185.31
2022-08-16T14:07:54.104Z,95181.91
2022-08-16T14:10:21.205Z,95179.66
2022-08-16T14:12:48.492Z,95181.69
2022-08-16T14:15:16.239Z,95174.47
2022-08-16T14:18:15.861Z,95173.25
2022-08-16T14:20:30.024Z,95171.69
2022-08-16T14:22:57.038Z,95175.66
2022-08-16T14:25:25.060Z,95176.81
2022-08-16T14:27:54.640Z,95167.09
2022-08-16T14:30:22.398Z,95167.38
2022-08-16T14:32:51.290Z,95160.06
2022-08-16T14:35:36.601Z,95160.16
2022-08-16T14:38:18.000Z,95164.44
2022-08-16T14:40:49.489Z,95164.59
2022-08-16T14:43:20.051Z,95160.34
2022-08-16T14:45:50.557Z,95158.69
2022-08-16T14:48:25.036Z,95160.94
2022-08-16T14:50:52.749Z,95158.78
2022-08-16T14:53:19.329Z,95165.16
2022-08-16T14:55:46.109Z,95163.41
2022-08-16T14:58:19.556Z,95156.09
2022-08-16T15:00:47.509Z,95154.91
2022-08-16T15:03:17.562Z,95161.00
2022-08-16T15:05:44.362Z,95153.78
2022-08-16T15:08:11.233Z,95159.72
2022-08-16T15:10:39.000Z,95164.06
2022-08-16T15:13:10.767Z,95159.22
2022-08-16T15:15:39.877Z,95157.88
2022-08-16T15:18:09.994Z,95143.59
2022-08-16T15:20:41.116Z,95148.09
2022-08-16T15:23:10.007Z,95147.69
2022-08-16T15:25:43.193Z,95144.09
2022-08-16T15:28:31.250Z,95149.94
2022-08-16T15:31:01.029Z,95148.75
2022-08-16T15:33:33.562Z,95155.00
2022-08-16T15:36:01.093Z,95154.69
2022-08-16T15:38:57.962Z,95159.63
2022-08-16T15:41:44.351Z,95157.66
2022-08-16T15:44:17.865Z,95157.13
2022-08-16T15:46:56.729Z,95156.00
2022-08-16T15:49:37.791Z,95157.91
2022-08-16T15:52:20.690Z,95158.75
2022-08-16T15:54:53.033Z,95154.72
2022-08-16T15:57:22.212Z,95159.59
2022-08-16T15:59:55.681Z,95160.97
2022-08-16T16:02:27.955Z,95165.78
2022-08-16T16:04:57.356Z,95163.56
2022-08-16T16:07:27.451Z,95163.16
2022-08-16T16:09:58.179Z,95154.78
2022-08-16T16:15:16.096Z,95157.41
2022-08-16T16:17:43.892Z,95156.59
2022-08-16T16:20:14.878Z,95157.19
2022-08-16T16:22:43.522Z,95154.72
2022-08-16T16:25:12.413Z,95159.09
2022-08-16T16:27:39.441Z,95151.19
2022-08-16T16:30:33.580Z,95151.34
2022-08-16T16:32:57.386Z,95158.41
2022-08-16T16:35:25.933Z,95154.25
2022-08-16T16:37:56.484Z,95152.94
2022-08-16T16:40:32.747Z,95153.59
2022-08-16T16:43:00.343Z,95156.59
2022-08-16T16:45:34.901Z,95155.56
2022-08-16T16:48:12.426Z,95149.19
2022-08-16T16:50:44.546Z,95148.16
2022-08-16T16:53:17.409Z,95156.00
2022-08-16T16:55:52.261Z,95152.63
2022-08-16T16:58:43.221Z,95149.34
2022-08-16T17:01:10.946Z,95153.31
2022-08-16T17:03:38.619Z,95159.50
2022-08-16T17:06:09.206Z,95156.00
2022-08-16T17:08:40.650Z,95148.50
2022-08-16T17:11:08.111Z,95153.25
2022-08-16T17:13:35.149Z,95152.94
2022-08-16T17:16:02.100Z,95152.88
2022-08-16T17:19:16.825Z,95148.13
2022-08-16T17:21:16.653Z,95157.03
2022-08-16T17:23:58.808Z,95150.00
2022-08-16T17:26:30.910Z,95151.47
2022-08-16T17:29:02.201Z,95154.44
2022-08-16T17:31:41.123Z,95162.75
2022-08-16T17:34:29.390Z,95158.38
2022-08-16T17:37:00.689Z,95158.75
2022-08-16T17:39:45.250Z,95168.47
2022-08-16T17:42:22.360Z,95168.44
2022-08-16T17:44:52.160Z,95169.25
2022-08-16T17:47:18.735Z,95163.63
2022-08-16T17:49:45.387Z,95160.50
2022-08-16T17:52:12.934Z,95164.13
2022-08-16T17:54:39.828Z,95163.91
2022-08-16T17:57:06.634Z,95165.75
2022-08-16T17:59:36.935Z,95168.22
2022-08-16T18:02:42.404Z,95174.59
2022-08-16T18:04:55.716Z,95171.63
2022-08-16T18:07:22.672Z,95171.81
2022-08-16T18:09:49.617Z,95176.22
2022-08-16T18:12:44.659Z,95180.28
2022-08-16T18:15:16.739Z,95178.50
2022-08-16T18:17:43.849Z,95184.88
2022-08-16T18:20:30.545Z,95180.19
2022-08-16T18:23:04.711Z,95180.72
2022-08-16T18:25:31.388Z,95182.59
2022-08-16T18:27:57.985Z,95191.00
2022-08-16T18:30:24.624Z,95176.22
2022-08-16T18:32:51.950Z,95178.22
2022-08-16T18:35:20.745Z,95182.44
2022-08-16T18:37:47.600Z,95186.06
2022-08-16T18:40:15.492Z,95186.56
2022-08-16T18:42:57.447Z,95197.78
2022-08-16T18:45:25.567Z,95194.47
2022-08-16T18:48:03.508Z,95193.41
2022-08-16T18:50:58.458Z,95196.84
2022-08-16T18:53:20.721Z,95196.53
2022-08-16T18:55:48.928Z,95196.84
2022-08-16T18:58:16.263Z,95204.50
2022-08-16T19:00:55.812Z,95207.97
2022-08-16T19:03:26.260Z,95209.34
2022-08-16T19:06:13.850Z,95213.88
2022-08-16T19:08:43.700Z,95211.03
2022-08-16T19:11:18.819Z,95213.34
2022-08-16T19:13:46.114Z,95214.56
2022-08-16T19:16:13.714Z,95215.91
2022-08-16T19:18:40.623Z,95219.75
2022-08-16T19:21:09.200Z,95223.22
2022-08-16T19:23:37.589Z,95220.28
2022-08-16T19:26:11.074Z,95226.28
2022-08-16T19:28:58.896Z,95222.09
2022-08-16T19:31:33.720Z,95220.94
2022-08-16T19:34:00.912Z,95224.13
2022-08-16T19:36:37.397Z,95229.59
2022-08-16T19:39:13.905Z,95224.91
2022-08-16T19:41:43.158Z,95215.97
2022-08-16T19:44:11.298Z,95219.41
2022-08-16T19:46:38.442Z,95221.59
2022-08-16T19:49:05.111Z,95224.94
2022-08-16T19:51:32.194Z,95228.19
2022-08-16T19:53:58.825Z,95238.88
2022-08-16T19:56:26.641Z,95227.69
2022-08-16T20:01:42.794Z,95222.63
2022-08-16T20:04:13.529Z,95221.06
2022-08-16T20:06:41.433Z,95227.97
2022-08-16T20:09:08.119Z,95224.34
2022-08-16T20:11:37.118Z,95229.00
2022-08-16T20:14:04.407Z,95228.41
2022-08-16T20:16:31.072Z,95227.19
2022-08-16T20:18:57.804Z,95231.28
2022-08-16T20:21:24.444Z,95232.59
2022-08-16T20:23:51.152Z,95236.94
2022-08-16T20:26:18.745Z,95227.38
2022-08-16T20:28:54.221Z,95232.75
2022-08-16T20:31:23.614Z,95232.81
2022-08-16T20:33:51.725Z,95231.09
2022-08-16T20:36:18.320Z,95233.75
2022-08-16T20:38:47.014Z,95229.47
2022-08-16T20:41:14.271Z,95244.19
2022-08-16T20:43:40.906Z,95241.63
2022-08-16T20:46:08.133Z,95241.56
2022-08-16T20:48:34.713Z,95244.50
2022-08-16T20:51:04.002Z,95246.25
2022-08-16T20:53:30.574Z,95246.91
2022-08-16T20:55:57.212Z,95245.06
2022-08-16T20:58:23.808Z,95246.28
2022-08-16T21:00:50.548Z,95244.53
2022-08-16T21:03:17.159Z,95247.94
2022-08-16T21:05:46.465Z,95247.59
2022-08-16T21:08:51.551Z,95245.25
2022-08-16T21:11:03.320Z,95254.06
2022-08-16T21:13:33.922Z,95263.63
2022-08-16T21:16:02.297Z,95257.47
2022-08-16T21:18:29.264Z,95251.63
2022-08-16T21:20:56.216Z,95250.34
2022-08-16T21:23:23.075Z,95251.00
2022-08-16T21:25:59.053Z,95247.41
2022-08-16T21:28:42.085Z,95257.47
2022-08-16T21:31:14.264Z,95253.13
2022-08-16T21:33:42.504Z,95262.56
2022-08-16T21:36:10.140Z,95264.38
2022-08-16T21:38:37.165Z,95274.19
2022-08-16T21:41:05.262Z,95260.44
2022-08-16T21:43:33.287Z,95270.75
2022-08-16T21:46:05.997Z,95266.13
2022-08-16T21:48:35.673Z,95265.50
2022-08-16T21:51:08.865Z,95259.13
2022-08-16T21:53:36.244Z,95260.63
2022-08-16T21:56:05.634Z,95264.16
2022-08-16T21:58:33.968Z,95267.66
2022-08-16T22:01:01.764Z,95281.38
2022-08-16T22:03:32.707Z,95272.66
2022-08-16T22:06:12.155Z,95271.69
2022-08-16T22:08:49.170Z,95272.78
2022-08-16T22:11:21.996Z,95277.56
2022-08-16T22:13:52.788Z,95282.50
2022-08-16T22:16:27.702Z,95280.88
2022-08-16T22:18:54.557Z,95286.66
2022-08-16T22:21:21.235Z,95285.16
2022-08-16T22:23:56.942Z,95283.16
2022-08-16T22:26:33.211Z,95291.13
2022-08-16T22:29:09.250Z,95288.94
2022-08-16T22:31:37.398Z,95299.34
2022-08-16T22:34:04.674Z,95291.94
2022-08-16T22:36:32.962Z,95293.91
2022-08-16T22:39:03.534Z,95291.19
2022-08-16T22:41:32.126Z,95288.63
2022-08-16T22:43:59.197Z,95295.03
2022-08-16T22:46:25.777Z,95300.31
2022-08-16T22:48:52.397Z,95289.09
2022-08-16T22:51:20.698Z,95289.25
2022-08-16T22:53:47.472Z,95287.59
2022-08-16T22:56:15.617Z,95296.91
2022-08-16T22:58:42.514Z,95295.31
2022-08-16T23:01:10.755Z,95293.84
2022-08-16T23:03:38.006Z,95284.66
2022-08-16T23:06:06.081Z,95287.50
2022-08-16T23:08:40.029Z,95280.56
2022-08-16T23:11:10.470Z,95277.19
2022-08-16T23:13:37.206Z,95276.06
2022-08-16T23:16:11.388Z,95272.41
2022-08-16T23:18:39.213Z,95266.56
2022-08-16T23:21:09.505Z,95271.44
2022-08-16T23:23:37.228Z,95268.25
2022-08-16T23:26:36.428Z,95260.81
2022-08-16T23:28:51.367Z,95254.69
2022-08-16T23:31:18.397Z,95254.72
2022-08-16T23:33:45.918Z,95259.94
2022-08-16T23:36:13.372Z,95255.91
2022-08-16T23:38:40.051Z,95254.63
2022-08-16T23:41:11.291Z,95250.16
2022-08-16T23:43:43.935Z,95246.38
2022-08-16T23:46:17.136Z,95238.13
2022-08-16T23:49:58.178Z,95226.22
2022-08-16T23:51:31.378Z,95233.38
2022-08-16T23:53:58.009Z,95235.22
2022-08-16T23:56:25.660Z,95226.69
2022-08-16T23:58:55.983Z,95227.97
